createdAt,value
2018-07-10T00:00:35.793Z,62.60
2018-07-10T00:06:17.832Z,62.60
2018-07-10T00:11:57.584Z,62.50
2018-07-10T00:15:22.461Z,63.20
2018-07-10T00:18:47.165Z,62.70
2018-07-10T00:25:36.322Z,63.80
2018-07-10T00:29:00.985Z,63.70
2018-07-10T00:35:50.041Z,64.30
2018-07-10T00:39:14.797Z,64.40
2018-07-10T00:42:39.567Z,64.30
2018-07-10T00:46:04.339Z,64.40
2018-07-10T00:49:29.153Z,64.60
2018-07-10T00:52:53.869Z,64.00
2018-07-10T00:56:18.593Z,64.20
2018-07-10T00:59:43.286Z,63.10
2018-07-10T01:03:08.151Z,62.90
2018-07-10T01:06:33.004Z,63.00
2018-07-10T01:09:57.753Z,63.10
2018-07-10T01:13:22.510Z,63.10
2018-07-10T01:16:47.262Z,62.30
2018-07-10T01:20:12.156Z,62.10
2018-07-10T01:23:38.786Z,63.30
2018-07-10T01:27:03.583Z,62.90
2018-07-10T01:30:28.349Z,62.60
2018-07-10T01:33:53.081Z,63.20
2018-07-10T01:37:17.836Z,63.00
2018-07-10T01:40:43.854Z,62.90
2018-07-10T01:44:08.527Z,62.80
2018-07-10T01:47:33.210Z,62.90
2018-07-10T01:50:57.954Z,62.90
2018-07-10T01:57:47.073Z,62.00
2018-07-10T02:01:11.860Z,61.80
2018-07-10T02:04:38.106Z,62.00
2018-07-10T02:08:03.288Z,62.10
2018-07-10T02:11:28.138Z,61.90
2018-07-10T02:14:52.828Z,61.80
2018-07-10T02:18:17.590Z,61.30
2018-07-10T02:25:06.673Z,61.80
2018-07-10T02:28:31.412Z,61.50
2018-07-10T02:31:56.241Z,61.40
2018-07-10T02:35:20.962Z,61.70
2018-07-10T02:38:48.777Z,60.50
2018-07-10T02:45:37.874Z,61.80
2018-07-10T02:52:39.995Z,63.30
2018-07-10T02:56:05.515Z,61.90
2018-07-10T02:59:36.522Z,60.90
2018-07-10T03:03:02.534Z,61.00
2018-07-10T03:06:27.218Z,60.70
2018-07-10T03:09:51.971Z,60.70
2018-07-10T03:13:17.318Z,60.30
2018-07-10T03:16:42.076Z,59.80
2018-07-10T03:20:07.711Z,60.20
2018-07-10T03:23:32.418Z,59.50
2018-07-10T03:26:57.093Z,60.40
2018-07-10T03:30:22.066Z,60.10
2018-07-10T03:33:46.897Z,60.00
2018-07-10T03:37:12.668Z,59.70
2018-07-10T03:40:37.424Z,60.10
2018-07-10T03:44:02.166Z,59.80
2018-07-10T03:47:28.122Z,59.50
2018-07-10T03:50:53.400Z,59.10
2018-07-10T03:54:19.084Z,60.40
2018-07-10T03:57:43.952Z,61.90
2018-07-10T04:01:08.780Z,63.60
2018-07-10T04:04:33.534Z,63.50
2018-07-10T04:07:58.908Z,63.40
2018-07-10T04:11:24.717Z,64.10
2018-07-10T04:14:49.471Z,66.80
2018-07-10T04:18:16.132Z,64.40
2018-07-10T04:21:40.892Z,63.20
2018-07-10T04:25:05.705Z,63.90
2018-07-10T04:28:35.763Z,64.70
2018-07-10T04:32:01.790Z,65.20
2018-07-10T04:38:57.206Z,65.10
2018-07-10T04:42:29.566Z,65.00
2018-07-10T04:53:03.254Z,66.20
2018-07-10T04:56:28.953Z,66.00
2018-07-10T04:59:53.691Z,66.30
2018-07-10T05:03:20.668Z,65.10
2018-07-10T05:06:45.431Z,65.60
2018-07-10T05:10:10.485Z,65.10
2018-07-10T05:17:01.431Z,65.50
2018-07-10T05:20:27.378Z,66.10
2018-07-10T05:23:52.214Z,68.00
2018-07-10T05:27:17.247Z,69.60
2018-07-10T05:30:43.960Z,70.10
2018-07-10T05:34:08.824Z,70.40
2018-07-10T05:37:37.267Z,70.50
2018-07-10T05:41:01.999Z,70.60
2018-07-10T05:47:57.570Z,70.60
2018-07-10T05:51:23.554Z,70.60
2018-07-10T05:54:48.469Z,70.20
2018-07-10T06:01:38.964Z,69.70
2018-07-10T06:05:03.741Z,69.60
2018-07-10T06:08:28.581Z,69.30
2018-07-10T06:11:53.278Z,69.00
2018-07-10T06:15:18.533Z,69.50
2018-07-10T06:18:44.212Z,69.50
2018-07-10T06:22:09.121Z,68.90
2018-07-10T06:25:35.814Z,68.20
2018-07-10T06:29:05.119Z,68.10
2018-07-10T06:32:36.846Z,68.40
2018-07-10T06:36:18.898Z,67.90
2018-07-10T06:39:43.603Z,68.30
2018-07-10T06:44:12.512Z,68.00
2018-07-10T06:47:48.757Z,67.30
2018-07-10T06:51:19.858Z,66.70
2018-07-10T06:54:57.511Z,65.70
2018-07-10T07:01:49.621Z,63.90
2018-07-10T07:05:14.985Z,63.40
2018-07-10T07:08:39.848Z,63.90
2018-07-10T07:12:05.309Z,62.40
2018-07-10T07:15:30.104Z,62.60
2018-07-10T07:19:01.172Z,63.00
2018-07-10T07:22:26.295Z,63.40
2018-07-10T07:26:01.799Z,63.80
2018-07-10T07:29:27.634Z,64.90
2018-07-10T07:36:05.787Z,64.30
2018-07-10T07:39:31.703Z,63.50
2018-07-10T07:43:05.348Z,62.80
2018-07-10T07:46:31.322Z,62.70
2018-07-10T07:49:56.317Z,59.90
2018-07-10T07:53:21.444Z,60.30
2018-07-10T07:56:47.645Z,59.90
2018-07-10T08:00:12.383Z,60.30
2018-07-10T08:03:38.611Z,59.90
2018-07-10T08:07:03.411Z,58.20
2018-07-10T08:10:28.273Z,58.70
2018-07-10T08:13:53.233Z,57.30
2018-07-10T08:17:18.207Z,56.80
2018-07-10T08:20:43.133Z,57.60
2018-07-10T08:24:09.147Z,56.70
2018-07-10T08:27:37.327Z,56.90
2018-07-10T08:31:03.939Z,56.60
2018-07-10T08:34:30.325Z,57.40
2018-07-10T08:37:55.361Z,56.90
2018-07-10T08:41:22.519Z,57.90
2018-07-10T08:44:47.266Z,59.40
2018-07-10T08:48:13.060Z,58.30
2018-07-10T08:51:38.016Z,56.20
2018-07-10T08:55:03.375Z,55.80
2018-07-10T08:58:28.226Z,56.30
2018-07-10T09:01:53.358Z,56.20
2018-07-10T09:05:18.199Z,56.30
2018-07-10T09:08:42.959Z,55.90
2018-07-10T09:15:33.307Z,55.30
2018-07-10T09:22:22.382Z,57.20
2018-07-10T09:25:47.230Z,57.90
2018-07-10T09:32:41.669Z,57.60
2018-07-10T09:39:31.277Z,58.70
2018-07-10T09:43:01.413Z,56.70
2018-07-10T09:46:29.861Z,58.00
2018-07-10T09:49:54.719Z,56.90
2018-07-10T09:53:19.478Z,55.60
2018-07-10T09:56:44.471Z,55.30
2018-07-10T10:00:09.314Z,54.50
2018-07-10T10:07:00.342Z,52.60
2018-07-10T10:10:25.310Z,50.30
2018-07-10T10:13:50.308Z,53.80
2018-07-10T10:17:16.184Z,53.00
2018-07-10T10:20:42.078Z,55.00
2018-07-10T10:27:32.601Z,55.30
2018-07-10T10:30:57.363Z,55.50
2018-07-10T10:34:22.026Z,55.30
2018-07-10T10:37:47.247Z,53.10
2018-07-10T10:41:13.511Z,53.10
2018-07-10T10:44:38.198Z,53.00
2018-07-10T10:51:27.513Z,54.60
2018-07-10T10:54:52.276Z,54.00
2018-07-10T10:58:17.067Z,55.20
2018-07-10T11:05:06.265Z,55.50
2018-07-10T11:08:31.135Z,52.60
2018-07-10T11:11:57.244Z,51.90
2018-07-10T11:15:22.318Z,52.50
2018-07-10T11:19:00.905Z,53.00
2018-07-10T11:22:25.988Z,53.00
2018-07-10T11:25:50.970Z,51.90
2018-07-10T11:29:16.009Z,52.60
2018-07-10T11:32:40.755Z,52.00
2018-07-10T11:36:05.465Z,50.80
2018-07-10T11:39:30.636Z,51.30
2018-07-10T11:42:55.288Z,53.30
2018-07-10T11:46:20.042Z,52.50
2018-07-10T11:53:10.091Z,52.00
2018-07-10T11:56:34.861Z,52.80
2018-07-10T11:59:59.681Z,53.00
2018-07-10T12:03:25.878Z,53.10
2018-07-10T12:06:52.345Z,52.60
2018-07-10T12:10:26.188Z,52.10
2018-07-10T12:20:41.461Z,50.80
2018-07-10T12:24:06.772Z,51.20
2018-07-10T12:27:31.771Z,51.50
2018-07-10T12:30:56.461Z,51.50
2018-07-10T12:34:21.151Z,50.80
2018-07-10T12:37:45.893Z,50.60
2018-07-10T12:41:11.677Z,49.80
2018-07-10T12:44:36.390Z,50.10
2018-07-10T12:48:01.163Z,50.90
2018-07-10T12:51:25.905Z,51.20
2018-07-10T12:54:50.919Z,49.40
2018-07-10T12:58:16.792Z,47.40
2018-07-10T13:01:41.497Z,48.80
2018-07-10T13:05:07.514Z,49.70
2018-07-10T13:08:33.287Z,46.00
2018-07-10T13:15:22.503Z,46.60
2018-07-10T13:18:47.254Z,47.60
2018-07-10T13:22:11.994Z,48.00
2018-07-10T13:25:36.709Z,47.40
2018-07-10T13:29:01.458Z,47.40
2018-07-10T13:32:26.264Z,47.20
2018-07-10T13:35:51.131Z,48.10
2018-07-10T13:39:15.761Z,48.00
2018-07-10T13:46:13.672Z,47.30
2018-07-10T13:56:28.795Z,46.90
2018-07-10T13:59:53.443Z,45.80
2018-07-10T14:03:18.164Z,44.40
2018-07-10T14:10:07.277Z,43.50
2018-07-10T14:16:56.371Z,44.70
2018-07-10T14:20:21.060Z,44.10
2018-07-10T14:23:45.792Z,44.10
2018-07-10T14:27:10.519Z,44.10
2018-07-10T14:30:36.244Z,43.90
2018-07-10T14:34:00.951Z,43.00
2018-07-10T14:40:51.268Z,44.00
2018-07-10T14:44:16.160Z,44.20
2018-07-10T14:47:40.837Z,44.30
2018-07-10T14:51:05.543Z,45.00
2018-07-10T14:54:30.256Z,45.80
2018-07-10T14:57:55.762Z,46.00
2018-07-10T15:01:20.474Z,46.60
2018-07-10T15:04:45.186Z,46.30
2018-07-10T15:09:38.928Z,47.80
2018-07-10T15:13:03.630Z,47.70
2018-07-10T15:16:33.112Z,48.20
2018-07-10T15:19:57.882Z,49.20
2018-07-10T15:23:22.679Z,49.20
2018-07-10T15:26:47.321Z,50.00
2018-07-10T15:30:12.114Z,50.00
2018-07-10T15:33:36.835Z,50.00
2018-07-10T15:37:02.188Z,50.30
2018-07-10T15:40:26.918Z,50.50
2018-07-10T15:43:51.607Z,50.10
2018-07-10T15:47:16.317Z,50.20
2018-07-10T15:50:41.090Z,50.70
2018-07-10T16:00:54.548Z,51.10
2018-07-10T16:04:19.322Z,50.80
2018-07-10T16:07:44.076Z,51.10
2018-07-10T16:21:22.104Z,53.10
2018-07-10T16:24:51.115Z,53.60
2018-07-10T16:28:18.297Z,53.20
2018-07-10T16:31:45.449Z,53.30
2018-07-10T16:35:10.750Z,54.50
2018-07-10T16:38:37.282Z,55.00
2018-07-10T16:42:07.261Z,55.40
2018-07-10T16:45:37.594Z,55.10
2018-07-10T16:49:43.861Z,54.90
2018-07-10T16:53:08.620Z,55.10
2018-07-10T16:56:33.363Z,55.00
2018-07-10T16:59:58.544Z,53.30
2018-07-10T17:03:23.249Z,53.50
2018-07-10T17:06:47.971Z,53.40
2018-07-10T17:10:12.930Z,53.00
2018-07-10T17:13:38.694Z,52.80
2018-07-10T17:17:03.425Z,54.20
2018-07-10T17:20:28.309Z,55.30
2018-07-10T17:27:23.319Z,53.80
2018-07-10T17:30:48.021Z,52.60
2018-07-10T17:34:12.874Z,52.10
2018-07-10T17:37:48.273Z,51.90
2018-07-10T17:41:13.168Z,51.90
2018-07-10T17:48:03.871Z,51.90
2018-07-10T17:54:56.608Z,53.00
2018-07-10T17:58:23.115Z,53.40
2018-07-10T18:01:48.050Z,52.70
2018-07-10T18:05:13.067Z,52.50
2018-07-10T18:08:39.045Z,53.20
2018-07-10T18:12:04.193Z,54.00
2018-07-10T18:15:29.221Z,54.30
2018-07-10T18:18:54.234Z,55.20
2018-07-10T18:22:19.496Z,55.60
2018-07-10T18:25:44.512Z,55.90
2018-07-10T18:29:09.434Z,56.80
2018-07-10T18:35:59.726Z,57.00
2018-07-10T18:39:24.659Z,57.30
2018-07-10T18:42:49.783Z,57.30
2018-07-10T18:46:14.834Z,57.90
2018-07-10T18:49:39.908Z,58.40
2018-07-10T18:53:04.819Z,58.70
2018-07-10T18:56:30.785Z,58.80
2018-07-10T19:00:06.480Z,59.30
2018-07-10T19:03:34.656Z,59.80
2018-07-10T19:10:24.408Z,61.00
2018-07-10T19:13:49.357Z,61.00
2018-07-10T19:20:53.887Z,61.30
2018-07-10T19:24:19.709Z,61.60
2018-07-10T19:31:19.433Z,63.30
2018-07-10T19:34:44.653Z,62.90
2018-07-10T19:38:10.266Z,63.40
2018-07-10T19:41:34.971Z,63.60
2018-07-10T19:45:02.199Z,63.90
2018-07-10T19:48:26.971Z,63.70
2018-07-10T19:51:52.089Z,64.10
2018-07-10T19:55:18.598Z,64.40
2018-07-10T20:02:10.787Z,66.10
2018-07-10T20:05:36.910Z,67.40
2018-07-10T20:09:08.822Z,67.80
2018-07-10T20:16:09.637Z,68.60
2018-07-10T20:19:44.476Z,68.10
2018-07-10T20:23:30.180Z,67.90
2018-07-10T20:27:10.522Z,68.50
2018-07-10T20:30:53.271Z,67.60
2018-07-10T20:34:55.390Z,67.90
2018-07-10T20:38:21.109Z,67.50
2018-07-10T20:45:13.186Z,67.30
2018-07-10T20:48:55.898Z,67.60
2018-07-10T20:53:01.377Z,67.50
2018-07-10T20:58:49.649Z,67.20
2018-07-10T21:04:27.766Z,67.30
2018-07-10T21:11:28.336Z,67.10
2018-07-10T21:15:05.603Z,67.30
2018-07-10T21:19:47.457Z,67.00
2018-07-10T21:23:26.797Z,67.30
2018-07-10T21:27:01.251Z,66.80
2018-07-10T21:30:49.778Z,67.00
2018-07-10T21:34:25.160Z,66.90
2018-07-10T21:38:02.965Z,67.20
2018-07-10T21:42:51.096Z,67.90
2018-07-10T21:46:33.821Z,67.80
2018-07-10T21:50:02.310Z,67.50
2018-07-10T21:53:27.543Z,67.80
2018-07-10T21:56:53.220Z,68.20
2018-07-10T22:00:18.581Z,68.40
2018-07-10T22:03:43.850Z,68.00
2018-07-10T22:07:13.412Z,67.50
2018-07-10T22:10:38.650Z,68.10
2018-07-10T22:14:03.976Z,66.80
2018-07-10T22:17:29.355Z,66.90
2018-07-10T22:20:54.712Z,66.70
2018-07-10T22:27:45.782Z,66.90
2018-07-10T22:31:17.096Z,67.00
2018-07-10T22:34:45.275Z,67.50
2018-07-10T22:41:35.417Z,67.30
2018-07-10T22:45:01.020Z,67.60
2018-07-10T22:48:26.411Z,67.30
2018-07-10T22:51:51.668Z,67.50
2018-07-10T22:55:20.956Z,67.30
2018-07-10T22:58:46.297Z,66.70
2018-07-10T23:02:17.089Z,66.70
2018-07-10T23:05:44.219Z,66.70
2018-07-10T23:12:33.262Z,65.70
2018-07-10T23:15:58.015Z,65.70
2018-07-10T23:19:22.779Z,66.10
2018-07-10T23:22:55.916Z,65.50
2018-07-10T23:26:20.730Z,65.70
2018-07-10T23:29:45.463Z,66.00
2018-07-10T23:33:15.940Z,65.90
2018-07-10T23:43:38.800Z,65.90
2018-07-10T23:47:13.283Z,65.90
2018-07-10T23:54:03.043Z,65.70
2018-07-10T23:57:27.724Z,65.90
